Time;durP1;ratioP1;P1;durP2;ratioP2;P2;SDS_P1;SDS_P2;PMS_P1;PMS_P2;Temp;Humidity;BMP_temperature;BMP_pressure;BME280_temperature;BME280_humidity;BME280_pressure;Samples;Min_cycle;Max_cycle;Signal;HPM_P1;HPM_P2
2022/06/06 00:00:07;;;;;;;5.30;4.80;;;21.30;52.80;;;;;;5157308;28;20533;-55
2022/06/06 00:02:39;;;;;;;4.53;4.07;;;21.30;52.90;;;;;;5174934;28;20491;-55
2022/06/06 00:05:13;;;;;;;4.90;4.60;;;21.30;52.90;;;;;;5163760;28;20944;-54
2022/06/06 00:07:43;;;;;;;4.87;4.57;;;21.30;53.00;;;;;;5166670;28;20548;-55
2022/06/06 00:10:14;;;;;;;5.30;4.80;;;21.30;53.00;;;;;;5164074;28;20527;-55
2022/06/06 00:12:44;;;;;;;4.90;4.50;;;21.30;53.20;;;;;;5153507;28;20214;-56
2022/06/06 00:15:15;;;;;;;4.87;4.57;;;21.30;53.20;;;;;;5163803;28;20177;-55
2022/06/06 00:17:45;;;;;;;4.50;4.10;;;21.30;53.20;;;;;;5157199;28;20296;-55
2022/06/06 00:20:16;;;;;;;4.87;4.57;;;21.30;53.30;;;;;;5156852;28;20664;-54
2022/06/06 00:22:47;;;;;;;5.60;4.40;;;21.30;53.30;;;;;;5154561;28;20199;-54
2022/06/06 00:25:17;;;;;;;4.70;4.13;;;21.20;53.30;;;;;;5155545;28;20623;-55
2022/06/06 00:27:48;;;;;;;5.40;4.90;;;21.20;53.50;;;;;;5149779;28;20380;-55
2022/06/06 00:30:19;;;;;;;5.17;4.70;;;21.20;53.50;;;;;;5164380;28;20177;-57
2022/06/06 00:35:39;;;;;;;5.90;4.70;;;21.20;53.70;;;;;;5164940;28;20185;-55
2022/06/06 00:38:10;;;;;;;5.73;5.13;;;21.20;54.30;;;;;;5152869;28;20816;-55
2022/06/06 00:40:40;;;;;;;6.03;4.30;;;21.20;53.80;;;;;;5164622;28;20209;-55
2022/06/06 00:43:11;;;;;;;4.63;4.33;;;21.20;53.80;;;;;;5155580;28;20185;-56
2022/06/06 00:45:44;;;;;;;4.77;4.50;;;21.10;53.60;;;;;;5165458;28;20273;-56
2022/06/06 00:48:33;;;;;;;4.90;4.70;;;21.20;53.80;;;;;;5153361;28;20617;-57
2022/06/06 00:51:05;;;;;;;5.60;5.20;;;21.20;54.00;;;;;;5164463;28;20467;-56
2022/06/06 00:53:40;;;;;;;4.77;4.27;;;21.10;54.10;;;;;;5159194;28;20436;-59
2022/06/06 00:56:24;;;;;;;5.67;5.17;;;21.20;54.40;;;;;;5158076;28;20459;-56
2022/06/06 00:58:59;;;;;;;5.33;4.93;;;21.10;55.60;;;;;;5154288;28;20510;-55
2022/06/06 01:01:34;;;;;;;5.10;4.57;;;20.80;58.20;;;;;;5167167;28;20990;-54
2022/06/06 01:04:06;;;;;;;5.60;5.13;;;20.50;59.50;;;;;;5168589;28;20439;-55
2022/06/06 01:06:41;;;;;;;6.10;5.70;;;20.20;62.40;;;;;;5165300;28;20444;-56
2022/06/06 01:09:13;;;;;;;6.97;5.90;;;19.90;65.50;;;;;;5167904;28;20459;-55
2022/06/06 01:11:48;;;;;;;6.17;5.67;;;19.60;71.30;;;;;;5150322;28;20833;-55
2022/06/06 01:14:25;;;;;;;6.70;6.10;;;19.50;81.70;;;;;;5167602;28;20843;-55
2022/06/06 01:17:02;;;;;;;7.30;5.60;;;19.60;93.30;;;;;;5156226;28;20440;-55
2022/06/06 01:19:51;;;;;;;7.07;6.47;;;19.60;97.40;;;;;;5166317;28;20948;-56
2022/06/06 01:22:52;;;;;;;6.80;6.30;;;19.60;99.90;;;;;;5159853;28;20585;-54
2022/06/06 01:25:44;;;;;;;7.40;6.60;;;19.60;99.90;;;;;;5166301;28;20924;-54
2022/06/06 01:28:48;;;;;;;7.30;6.33;;;19.60;99.90;;;;;;5160849;28;20947;-55
2022/06/06 01:31:43;;;;;;;8.20;6.20;;;19.50;99.90;;;;;;5165454;28;20547;-55
2022/06/06 01:34:22;;;;;;;6.20;5.70;;;19.40;99.90;;;;;;5163136;28;20441;-55
2022/06/06 01:36:55;;;;;;;6.93;6.27;;;19.40;99.90;;;;;;5161753;28;20511;-55
2022/06/06 01:39:29;;;;;;;9.43;6.70;;;19.40;99.90;;;;;;5157623;28;20433;-54
2022/06/06 01:42:30;;;;;;;6.37;5.93;;;19.30;99.90;;;;;;5167053;28;20428;-54
2022/06/06 01:45:04;;;;;;;7.33;6.73;;;19.30;99.90;;;;;;5166174;28;20509;-55
2022/06/06 01:47:42;;;;;;;7.33;6.70;;;19.30;99.90;;;;;;5162898;28;20482;-54
2022/06/06 01:50:14;;;;;;;7.00;6.50;;;19.30;99.90;;;;;;5155255;28;20443;-55
2022/06/06 01:52:58;;;;;;;6.40;5.90;;;19.40;99.90;;;;;;5157195;28;20479;-55
2022/06/06 01:55:31;;;;;;;7.57;6.90;;;19.30;99.90;;;;;;5162860;28;20987;-56
2022/06/06 01:58:06;;;;;;;6.53;6.13;;;19.30;99.90;;;;;;5163202;28;20488;-55
2022/06/06 02:00:38;;;;;;;6.87;6.30;;;19.30;99.90;;;;;;5164556;28;20502;-56
2022/06/06 02:03:09;;;;;;;7.10;6.50;;;19.20;99.90;;;;;;5166539;28;20432;-56
2022/06/06 02:05:40;;;;;;;6.40;5.93;;;19.40;99.90;;;;;;5174203;28;20453;-56
2022/06/06 02:08:10;;;;;;;7.30;6.80;;;19.40;99.90;;;;;;5156532;28;20283;-56
2022/06/06 02:10:42;;;;;;;8.03;7.33;;;19.50;99.90;;;;;;5157019;28;20651;-55
2022/06/06 02:13:13;;;;;;;8.70;7.90;;;19.50;99.90;;;;;;5151687;28;20534;-56
2022/06/06 02:15:44;;;;;;;8.10;7.40;;;19.50;99.90;;;;;;5165602;28;20843;-55
2022/06/06 02:18:15;;;;;;;7.63;7.10;;;19.50;99.90;;;;;;5165362;28;20542;-55
2022/06/06 02:20:45;;;;;;;8.20;7.50;;;19.30;99.90;;;;;;5166613;28;20197;-55
2022/06/06 02:23:16;;;;;;;11.20;8.17;;;19.10;99.90;;;;;;5164586;28;20187;-55
2022/06/06 02:25:48;;;;;;;9.50;8.17;;;19.00;99.90;;;;;;5163707;28;20185;-55
2022/06/06 02:28:18;;;;;;;8.40;7.70;;;18.90;99.90;;;;;;5161702;28;20453;-55
2022/06/06 02:30:49;;;;;;;8.80;7.90;;;18.90;99.90;;;;;;5151712;28;20828;-55
2022/06/06 02:33:20;;;;;;;10.30;9.27;;;18.80;99.90;;;;;;5166862;28;20181;-55
2022/06/06 02:35:50;;;;;;;10.30;8.97;;;18.80;99.90;;;;;;5158414;28;20244;-55
2022/06/06 02:38:21;;;;;;;8.47;7.77;;;18.70;99.90;;;;;;5158791;28;20288;-55
2022/06/06 02:40:52;;;;;;;9.90;8.90;;;18.70;99.90;;;;;;5157073;28;20272;-55
2022/06/06 02:43:22;;;;;;;9.00;8.23;;;18.60;99.90;;;;;;5163486;28;20993;-55
2022/06/06 02:45:53;;;;;;;8.33;7.63;;;18.60;99.90;;;;;;5160570;28;20170;-55
2022/06/06 02:48:24;;;;;;;18.10;9.20;;;18.60;99.90;;;;;;5168752;28;20290;-55
2022/06/06 02:50:54;;;;;;;11.43;8.93;;;18.50;99.90;;;;;;5165838;28;20257;-55
2022/06/06 02:53:26;;;;;;;10.60;8.80;;;18.30;99.90;;;;;;5166868;28;20215;-55
2022/06/06 02:55:57;;;;;;;9.73;8.93;;;18.20;99.90;;;;;;5163142;28;20193;-54
2022/06/06 02:58:29;;;;;;;10.17;9.17;;;18.00;99.90;;;;;;5162589;28;20565;-55
2022/06/06 03:01:06;;;;;;;9.67;8.87;;;17.90;99.90;;;;;;5163037;28;20507;-55
2022/06/06 03:03:38;;;;;;;12.40;10.00;;;17.90;99.90;;;;;;5164882;28;20775;-55
2022/06/06 03:06:33;;;;;;;10.60;9.50;;;17.90;99.90;;;;;;5163443;28;20440;-54
2022/06/06 03:09:35;;;;;;;10.10;9.20;;;18.00;99.90;;;;;;5178370;28;20463;-56
2022/06/06 03:12:24;;;;;;;11.93;10.83;;;18.10;99.90;;;;;;5167436;28;20481;-55
2022/06/06 03:15:16;;;;;;;11.67;10.23;;;18.20;99.90;;;;;;5165993;28;20514;-55
2022/06/06 03:21:07;;;;;;;11.20;10.27;;;18.10;99.90;;;;;;5156375;28;21013;-55
2022/06/06 03:24:01;;;;;;;14.40;11.07;;;18.00;99.90;;;;;;5157917;28;20436;-57
2022/06/06 03:26:44;;;;;;;11.70;10.63;;;18.00;99.90;;;;;;5163035;28;20437;-55
2022/06/06 03:29:37;;;;;;;11.43;10.43;;;18.20;99.90;;;;;;5156766;28;20802;-55
2022/06/06 03:32:34;;;;;;;11.70;10.60;;;18.00;99.90;;;;;;5159541;28;20463;-55
2022/06/06 03:35:49;;;;;;;11.83;10.70;;;18.00;99.90;;;;;;5155489;28;20441;-55
2022/06/06 03:38:34;;;;;;;13.10;11.93;;;18.00;99.90;;;;;;5151517;28;20459;-55
2022/06/06 03:41:30;;;;;;;19.73;13.70;;;17.90;99.90;;;;;;5164946;28;20794;-56
2022/06/06 03:44:19;;;;;;;15.73;14.17;;;17.60;99.90;;;;;;5153383;28;20490;-55
2022/06/06 03:47:14;;;;;;;17.63;14.90;;;17.70;99.90;;;;;;5156739;28;20843;-54
2022/06/06 03:50:01;;;;;;;17.13;15.10;;;17.50;99.90;;;;;;5155390;28;20444;-54
2022/06/06 03:52:50;;;;;;;26.67;19.47;;;17.40;99.90;;;;;;5146294;28;20453;-54
2022/06/06 03:55:36;;;;;;;21.10;19.00;;;17.40;99.90;;;;;;5162104;28;20439;-54
2022/06/06 03:58:10;;;;;;;20.80;16.67;;;17.40;99.90;;;;;;5163582;28;20447;-55
2022/06/06 04:00:44;;;;;;;25.70;21.50;;;17.40;99.90;;;;;;5168924;28;20436;-55
2022/06/06 04:03:16;;;;;;;19.90;16.90;;;17.40;99.90;;;;;;5171067;28;20462;-54
2022/06/06 04:05:47;;;;;;;20.90;18.67;;;17.40;99.90;;;;;;5169186;28;20447;-56
2022/06/06 04:08:18;;;;;;;25.53;20.67;;;17.30;99.90;;;;;;5168331;28;20460;-54
2022/06/06 04:11:05;;;;;;;19.50;17.40;;;17.40;99.90;;;;;;5160885;28;20487;-55
2022/06/06 04:14:06;;;;;;;25.90;19.77;;;17.40;99.90;;;;;;5153246;28;20181;-54
2022/06/06 04:16:48;;;;;;;18.33;16.60;;;17.30;99.90;;;;;;5162231;28;20429;-55
2022/06/06 04:19:21;;;;;;;27.13;21.00;;;17.30;99.90;;;;;;5164648;28;20506;-54
2022/06/06 04:22:16;;;;;;;23.53;19.27;;;17.30;99.90;;;;;;5164237;28;20972;-54
2022/06/06 04:25:21;;;;;;;20.50;18.30;;;17.30;99.90;;;;;;5156434;28;20914;-55
2022/06/06 04:28:06;;;;;;;18.63;16.30;;;17.30;99.90;;;;;;5162361;28;20494;-55
2022/06/06 04:30:51;;;;;;;19.13;17.10;;;17.30;99.90;;;;;;5160701;28;20431;-54
2022/06/06 04:33:30;;;;;;;19.60;17.57;;;17.30;99.90;;;;;;5166074;28;20420;-55
2022/06/06 04:36:07;;;;;;;16.70;14.97;;;17.30;99.90;;;;;;5163204;28;20459;-55
2022/06/06 04:38:57;;;;;;;20.07;15.57;;;17.30;99.90;;;;;;5161633;28;20495;-54
2022/06/06 04:41:30;;;;;;;18.90;15.77;;;17.30;99.90;;;;;;5159031;28;20440;-55
2022/06/06 04:44:22;;;;;;;18.60;15.03;;;17.30;99.90;;;;;;5157169;28;20483;-54
2022/06/06 04:47:08;;;;;;;19.17;17.07;;;17.30;99.90;;;;;;5160081;28;20417;-54
2022/06/06 04:49:39;;;;;;;18.63;16.70;;;17.30;99.90;;;;;;5160574;28;20502;-55
2022/06/06 04:52:11;;;;;;;20.20;17.97;;;17.30;99.90;;;;;;5163850;28;20452;-55
2022/06/06 04:54:44;;;;;;;20.23;18.00;;;17.30;99.90;;;;;;5165238;28;20416;-54
2022/06/06 04:57:17;;;;;;;18.30;16.40;;;17.30;99.90;;;;;;5164422;28;20456;-55
2022/06/06 04:59:50;;;;;;;23.70;21.30;;;17.20;99.90;;;;;;5163754;28;20531;-54
2022/06/06 05:02:21;;;;;;;23.60;19.83;;;17.30;99.90;;;;;;5165093;28;20940;-54
2022/06/06 05:04:52;;;;;;;23.70;17.70;;;17.30;99.90;;;;;;5158240;28;20916;-56
2022/06/06 05:07:27;;;;;;;19.93;17.43;;;17.40;99.90;;;;;;5162004;28;20528;-54
2022/06/06 05:10:37;;;;;;;28.90;21.40;;;17.40;99.90;;;;;;5159996;28;20684;-56
2022/06/06 05:13:27;;;;;;;22.60;19.60;;;17.40;99.90;;;;;;5146645;28;20988;-54
2022/06/06 05:16:24;;;;;;;19.63;17.60;;;17.40;99.90;;;;;;5163855;28;20511;-54
2022/06/06 05:18:54;;;;;;;18.97;17.10;;;17.40;99.90;;;;;;5124309;28;20524;-55
2022/06/06 05:21:46;;;;;;;17.87;16.07;;;17.50;99.90;;;;;;5144047;28;20448;-54
2022/06/06 05:24:47;;;;;;;17.57;15.70;;;17.50;99.90;;;;;;5164239;28;20216;-54
2022/06/06 05:27:50;;;;;;;22.70;19.47;;;17.50;99.90;;;;;;5159412;28;20866;-55
2022/06/06 05:30:56;;;;;;;23.90;20.13;;;17.50;99.90;;;;;;5167342;28;20431;-55
2022/06/06 05:33:43;;;;;;;19.63;16.97;;;17.50;99.90;;;;;;5157118;28;20948;-55
2022/06/06 05:36:47;;;;;;;17.67;15.47;;;17.60;99.90;;;;;;5167288;28;20507;-55
2022/06/06 05:39:48;;;;;;;18.37;16.50;;;17.50;99.90;;;;;;5166690;28;20448;-54
2022/06/06 05:42:50;;;;;;;17.23;15.40;;;17.60;99.90;;;;;;5155359;28;20510;-54
2022/06/06 05:45:37;;;;;;;19.37;17.37;;;17.70;99.90;;;;;;5167528;28;20470;-55
2022/06/06 05:48:38;;;;;;;18.80;16.03;;;17.70;99.90;;;;;;5169642;28;20467;-54
2022/06/06 05:51:46;;;;;;;16.83;13.60;;;17.90;99.90;;;;;;5166249;28;20490;-55
2022/06/06 05:54:19;;;;;;;17.43;13.97;;;18.00;99.90;;;;;;5170940;28;20447;-54
2022/06/06 05:56:55;;;;;;;13.97;12.57;;;18.20;99.90;;;;;;5168007;28;20432;-55
2022/06/06 05:59:44;;;;;;;17.43;14.97;;;18.30;99.90;;;;;;5165590;28;20486;-55
2022/06/06 06:02:34;;;;;;;14.30;12.87;;;18.40;99.90;;;;;;5160384;28;20448;-55
2022/06/06 06:05:30;;;;;;;13.90;12.60;;;18.40;99.90;;;;;;5168188;28;20956;-54
2022/06/06 06:08:22;;;;;;;13.77;12.47;;;18.60;99.90;;;;;;5166819;28;20610;-55
2022/06/06 06:11:04;;;;;;;15.80;14.10;;;19.00;99.90;;;;;;5161114;28;20449;-56
2022/06/06 06:13:47;;;;;;;13.33;12.07;;;19.70;99.90;;;;;;5163633;28;20428;-55
2022/06/06 06:16:21;;;;;;;11.37;10.40;;;20.40;99.90;;;;;;5159625;28;20419;-54
2022/06/06 06:18:59;;;;;;;12.47;11.10;;;20.60;99.90;;;;;;5167297;28;20517;-55
2022/06/06 06:21:33;;;;;;;10.17;8.83;;;20.80;99.90;;;;;;5166546;28;20436;-56
2022/06/06 06:24:09;;;;;;;11.90;10.80;;;20.90;99.90;;;;;;5160847;28;20463;-56
2022/06/06 06:26:41;;;;;;;10.53;8.03;;;20.90;99.90;;;;;;5158239;28;20428;-55
2022/06/06 06:29:12;;;;;;;8.40;7.60;;;21.40;99.90;;;;;;5157640;28;20778;-56
2022/06/06 06:31:45;;;;;;;9.10;8.37;;;22.10;99.90;;;;;;5163515;28;20468;-56
2022/06/06 06:34:28;;;;;;;7.30;6.70;;;23.20;99.90;;;;;;5160108;28;20443;-56
2022/06/06 06:37:19;;;;;;;6.87;6.20;;;23.20;99.90;;;;;;5166525;28;20527;-56
2022/06/06 06:40:08;;;;;;;9.07;6.00;;;22.80;99.90;;;;;;5164214;28;20919;-57
2022/06/06 06:42:48;;;;;;;6.63;6.13;;;22.40;99.90;;;;;;5168204;28;20471;-57
2022/06/06 06:45:33;;;;;;;7.60;5.93;;;22.80;99.90;;;;;;5158339;28;20436;-56
2022/06/06 06:48:30;;;;;;;7.17;6.40;;;23.30;99.90;;;;;;5161252;28;20483;-56
2022/06/06 06:51:11;;;;;;;7.67;6.93;;;24.00;99.90;;;;;;5164903;28;20891;-56
2022/06/06 06:53:57;;;;;;;5.63;5.23;;;26.00;99.90;;;;;;5156935;28;20813;-58
2022/06/06 06:56:45;;;;;;;4.70;4.40;;;27.90;99.90;;;;;;5157034;28;20480;-56
2022/06/06 06:59:58;;;;;;;5.30;4.90;;;29.20;99.90;;;;;;5152293;28;20463;-56
2022/06/06 07:09:11;;;;;;;4.60;4.20;;;32.70;59.30;;;;;;5163311;28;20454;-57
2022/06/06 07:12:06;;;;;;;4.10;3.80;;;32.80;51.50;;;;;;5159451;28;20459;-58
2022/06/06 07:14:37;;;;;;;4.23;3.90;;;33.90;48.60;;;;;;5160649;28;20968;-58
2022/06/06 07:17:10;;;;;;;4.97;4.67;;;34.50;46.30;;;;;;5164786;28;20181;-58
2022/06/06 07:19:53;;;;;;;4.20;3.90;;;35.00;43.80;;;;;;5165392;28;20174;-58
2022/06/06 07:22:28;;;;;;;6.00;4.85;;;35.60;43.70;;;;;;5167975;28;20180;-58
2022/06/06 07:25:00;;;;;;;4.57;4.22;;;35.30;41.20;;;;;;5165865;28;20211;-57
2022/06/06 07:27:31;;;;;;;4.80;3.83;;;35.90;40.70;;;;;;5162094;28;20212;-58
2022/06/06 07:30:02;;;;;;;4.15;3.95;;;36.20;38.70;;;;;;5159470;28;20529;-56
2022/06/06 07:32:55;;;;;;;3.30;2.95;;;35.80;37.60;;;;;;5149298;28;20232;-57
2022/06/06 07:35:39;;;;;;;4.32;4.00;;;35.50;40.70;;;;;;5157585;28;20181;-57
2022/06/06 07:38:22;;;;;;;3.72;3.53;;;36.00;38.80;;;;;;5162399;28;20676;-58
2022/06/06 07:41:12;;;;;;;3.85;3.55;;;36.90;37.70;;;;;;5164129;28;20649;-57
2022/06/06 07:44:07;;;;;;;4.47;3.55;;;37.30;35.10;;;;;;5161096;28;20177;-58
2022/06/06 07:46:55;;;;;;;3.88;3.60;;;37.00;36.00;;;;;;5164217;28;20227;-58
2022/06/06 07:49:42;;;;;;;3.53;3.08;;;37.40;34.30;;;;;;5154797;28;20211;-57
2022/06/06 07:52:13;;;;;;;3.08;2.88;;;36.30;35.30;;;;;;5150766;28;20203;-57
2022/06/06 07:55:08;;;;;;;3.60;3.40;;;36.10;36.20;;;;;;5158435;28;20215;-57
2022/06/06 07:57:42;;;;;;;3.72;3.38;;;36.30;35.10;;;;;;5161733;28;20287;-58
2022/06/06 08:00:21;;;;;;;3.42;3.33;;;37.50;34.30;;;;;;5152953;28;20189;-58
2022/06/06 08:03:15;;;;;;;3.15;2.97;;;38.10;33.20;;;;;;5147252;28;20188;-58
2022/06/06 08:06:01;;;;;;;3.58;3.47;;;38.70;31.90;;;;;;5163457;28;20245;-58
2022/06/06 08:08:55;;;;;;;3.63;3.30;;;37.50;31.90;;;;;;5157698;28;20573;-57
2022/06/06 08:11:57;;;;;;;2.90;2.80;;;36.90;32.70;;;;;;5149645;28;20212;-64
2022/06/06 08:15:04;;;;;;;4.38;3.28;;;37.80;32.60;;;;;;5145245;28;20247;-58
2022/06/06 08:18:25;;;;;;;2.67;2.58;;;37.40;31.80;;;;;;5159865;28;20272;-59
2022/06/06 08:21:20;;;;;;;3.78;3.33;;;36.20;32.90;;;;;;5136413;28;20277;-57
2022/06/06 08:23:55;;;;;;;2.92;2.72;;;35.80;33.90;;;;;;5140314;28;20235;-57
2022/06/06 08:26:27;;;;;;;2.75;2.65;;;36.60;33.70;;;;;;5154012;28;20199;-59
2022/06/06 08:29:00;;;;;;;3.35;3.08;;;36.40;32.90;;;;;;5162695;28;20201;-59
2022/06/06 08:31:31;;;;;;;6.13;3.78;;;35.70;33.70;;;;;;5163981;28;20208;-57
2022/06/06 08:34:02;;;;;;;2.70;2.53;;;34.50;35.40;;;;;;5154096;28;20541;-58
2022/06/06 08:36:57;;;;;;;4.32;3.28;;;33.90;36.10;;;;;;5152291;28;20636;-57
2022/06/06 08:39:45;;;;;;;3.97;3.67;;;32.60;37.90;;;;;;5151342;28;20201;-57
2022/06/06 08:42:24;;;;;;;3.73;3.43;;;30.70;39.50;;;;;;5160425;28;20718;-57
2022/06/06 08:45:39;;;;;;;3.37;3.17;;;29.80;42.00;;;;;;5150822;28;20470;-57
2022/06/06 08:48:25;;;;;;;3.57;3.27;;;28.80;43.40;;;;;;5117590;28;20487;-58
2022/06/06 08:51:00;;;;;;;3.23;3.13;;;28.10;45.20;;;;;;5163606;28;20443;-57
2022/06/06 08:53:52;;;;;;;4.20;3.90;;;27.90;45.90;;;;;;5163327;28;20432;-56
2022/06/06 08:57:04;;;;;;;3.60;3.20;;;27.70;46.90;;;;;;5159471;28;20440;-57
2022/06/06 08:59:54;;;;;;;3.00;2.90;;;27.80;46.90;;;;;;5151247;28;20437;-57
2022/06/06 09:02:43;;;;;;;3.93;3.43;;;27.80;46.80;;;;;;5160754;28;20781;-57
2022/06/06 09:05:23;;;;;;;3.93;3.43;;;27.80;47.50;;;;;;5160283;28;20485;-57
2022/06/06 09:08:29;;;;;;;3.10;3.00;;;28.00;46.90;;;;;;5163087;28;20932;-57
2022/06/06 09:11:22;;;;;;;3.93;3.63;;;28.10;46.40;;;;;;5163532;28;20456;-56
2022/06/06 09:14:11;;;;;;;3.77;3.47;;;28.00;46.60;;;;;;5165811;28;20753;-56
2022/06/06 09:17:06;;;;;;;4.27;3.97;;;28.00;46.70;;;;;;5154550;28;20418;-57
2022/06/06 09:19:55;;;;;;;2.73;2.57;;;28.00;46.30;;;;;;5167616;28;20432;-56
2022/06/06 09:22:44;;;;;;;2.93;2.73;;;28.50;46.40;;;;;;5149895;28;20483;-56
2022/06/06 09:25:45;;;;;;;4.60;3.60;;;28.60;45.30;;;;;;5168600;28;20783;-58
2022/06/06 09:28:39;;;;;;;3.30;3.10;;;28.30;45.40;;;;;;5166009;28;20450;-57
2022/06/06 09:31:40;;;;;;;9.03;2.53;;;27.30;45.90;;;;;;5166565;28;20494;-56
2022/06/06 09:34:39;;;;;;;5.30;3.20;;;27.10;46.70;;;;;;5167805;28;20466;-57
2022/06/06 09:37:34;;;;;;;3.30;3.20;;;27.20;47.90;;;;;;5166013;28;20431;-58
2022/06/06 09:40:19;;;;;;;3.20;2.90;;;27.30;47.60;;;;;;5163772;28;20980;-58
2022/06/06 09:43:14;;;;;;;3.13;2.83;;;27.30;47.10;;;;;;5165136;28;20537;-56
2022/06/06 09:46:03;;;;;;;4.93;3.07;;;27.30;47.90;;;;;;5166042;28;20482;-58
2022/06/06 09:49:06;;;;;;;2.83;2.63;;;27.00;48.10;;;;;;5155537;28;20551;-58
2022/06/06 09:52:04;;;;;;;2.90;2.80;;;27.30;48.90;;;;;;5124667;28;20570;-58
2022/06/06 10:01:08;;;;;;;4.37;3.30;;;26.10;49.40;;;;;;5158418;28;20901;-56
2022/06/06 10:04:02;;;;;;;2.43;2.33;;;25.80;50.40;;;;;;5158492;28;20490;-56
2022/06/06 10:06:56;;;;;;;4.07;3.80;;;26.10;50.40;;;;;;5157719;28;20436;-57
2022/06/06 10:09:48;;;;;;;3.13;2.87;;;26.40;50.40;;;;;;5161751;28;20962;-57
2022/06/06 10:12:51;;;;;;;3.63;3.33;;;26.40;49.90;;;;;;5166604;28;20467;-57
2022/06/06 10:15:55;;;;;;;3.87;3.40;;;26.20;49.70;;;;;;5161476;28;20474;-55
2022/06/06 10:18:38;;;;;;;4.87;4.37;;;26.50;50.40;;;;;;5147670;28;20504;-56
2022/06/06 10:21:31;;;;;;;3.57;3.27;;;26.80;49.60;;;;;;5162390;28;20432;-57
2022/06/06 10:24:29;;;;;;;3.43;3.23;;;26.90;48.70;;;;;;5160240;28;20451;-58
2022/06/06 10:27:13;;;;;;;4.10;3.23;;;27.20;49.10;;;;;;5158241;28;20436;-60
2022/06/06 10:30:13;;;;;;;3.27;3.07;;;27.50;48.80;;;;;;5159246;28;20440;-57
2022/06/06 10:33:08;;;;;;;3.13;2.83;;;28.00;48.10;;;;;;5162773;28;20474;-58
2022/06/06 10:36:26;;;;;;;16.53;8.87;;;28.30;46.90;;;;;;5156111;28;20523;-57
2022/06/06 10:39:24;;;;;;;8.57;5.00;;;28.20;46.90;;;;;;5148403;28;20461;-57
2022/06/06 10:42:13;;;;;;;19.70;12.53;;;28.00;46.90;;;;;;5161608;28;20769;-58
2022/06/06 10:45:12;;;;;;;9.30;8.37;;;27.70;47.20;;;;;;5168392;28;20979;-58
2022/06/06 10:48:01;;;;;;;3.67;3.40;;;27.20;48.80;;;;;;5160290;28;20857;-56
2022/06/06 10:54:15;;;;;;;3.30;2.87;;;26.50;50.00;;;;;;5161904;28;20987;-58
2022/06/06 10:56:57;;;;;;;5.00;4.60;;;26.60;50.30;;;;;;5162293;28;20973;-58
2022/06/06 10:59:49;;;;;;;16.57;10.03;;;27.00;50.10;;;;;;5162680;28;20429;-57
2022/06/06 11:02:49;;;;;;;4.30;3.90;;;27.20;48.90;;;;;;5152013;28;20433;-59
2022/06/06 11:05:50;;;;;;;5.20;4.77;;;27.20;48.70;;;;;;5155354;28;20433;-58
2022/06/06 11:08:33;;;;;;;13.50;10.20;;;27.30;48.80;;;;;;5161494;28;20440;-57
2022/06/06 11:11:22;;;;;;;11.30;6.77;;;27.30;48.70;;;;;;5158183;28;20415;-56
2022/06/06 11:14:23;;;;;;;3.27;3.07;;;27.40;49.00;;;;;;5157421;28;20420;-58
2022/06/06 11:17:31;;;;;;;2.60;2.50;;;27.60;48.50;;;;;;5167194;28;20486;-58
2022/06/06 11:20:20;;;;;;;2.70;2.60;;;27.70;48.50;;;;;;5164834;28;20464;-59
2022/06/06 11:23:29;;;;;;;2.47;2.37;;;27.60;48.20;;;;;;5162495;28;20573;-56
2022/06/06 11:26:27;;;;;;;3.10;2.90;;;27.30;48.30;;;;;;5148232;28;20432;-58
2022/06/06 11:29:23;;;;;;;3.00;2.80;;;26.80;48.60;;;;;;5156942;28;20560;-58
2022/06/06 11:32:31;;;;;;;2.40;2.30;;;26.50;49.40;;;;;;5165323;28;20480;-57
2022/06/06 11:35:45;;;;;;;4.17;3.73;;;26.30;50.50;;;;;;5154421;28;20939;-58
2022/06/06 11:39:00;;;;;;;24.73;13.13;;;26.10;49.70;;;;;;5162500;28;20443;-58
2022/06/06 11:41:31;;;;;;;3.03;2.83;;;26.00;50.50;;;;;;5153257;28;20448;-58
2022/06/06 11:44:08;;;;;;;6.20;3.30;;;25.90;50.20;;;;;;5153736;28;20519;-56
2022/06/06 11:46:58;;;;;;;3.80;3.47;;;25.90;50.80;;;;;;5154044;28;20669;-57
2022/06/06 11:49:43;;;;;;;2.97;2.87;;;26.00;50.40;;;;;;5160574;28;20452;-55
2022/06/06 11:52:42;;;;;;;3.63;3.30;;;26.20;50.70;;;;;;5159547;28;20820;-58
2022/06/06 11:55:38;;;;;;;2.97;2.77;;;26.30;50.00;;;;;;5162827;28;20488;-56
2022/06/06 11:58:32;;;;;;;5.97;5.47;;;26.80;49.20;;;;;;5157659;28;20481;-56
2022/06/06 12:01:36;;;;;;;4.90;4.20;;;27.60;48.40;;;;;;5165658;28;20432;-55
2022/06/06 12:04:42;;;;;;;3.30;3.00;;;27.70;46.90;;;;;;5164843;28;20442;-56
2022/06/06 12:07:34;;;;;;;3.33;3.13;;;28.00;46.30;;;;;;5176915;28;20456;-56
2022/06/06 12:10:11;;;;;;;9.33;3.20;;;28.20;46.10;;;;;;5164383;28;20436;-55
2022/06/06 12:13:00;;;;;;;2.00;1.90;;;28.20;46.40;;;;;;5165086;28;20534;-58
2022/06/06 12:15:49;;;;;;;2.80;2.60;;;28.10;45.10;;;;;;5157309;28;20902;-57
2022/06/06 12:18:25;;;;;;;3.73;2.87;;;27.80;46.00;;;;;;5161448;28;20523;-56
2022/06/06 12:21:38;;;;;;;3.27;2.87;;;27.60;46.50;;;;;;5159668;28;20472;-55
2022/06/06 12:24:38;;;;;;;2.00;2.00;;;27.70;45.50;;;;;;5154751;28;20760;-58
2022/06/06 12:27:36;;;;;;;6.50;3.90;;;27.90;46.20;;;;;;5159842;28;20432;-56
2022/06/06 12:30:15;;;;;;;4.20;3.33;;;28.30;45.40;;;;;;5176944;28;20431;-58
2022/06/06 12:33:03;;;;;;;2.10;2.00;;;28.30;45.20;;;;;;5164657;28;20460;-56
2022/06/06 12:35:57;;;;;;;4.20;2.47;;;28.10;46.30;;;;;;5163096;28;20966;-56
2022/06/06 12:38:58;;;;;;;2.60;2.40;;;27.70;46.20;;;;;;5163157;28;20467;-57
2022/06/06 12:41:59;;;;;;;2.17;2.07;;;27.40;47.10;;;;;;5169032;28;20765;-55
2022/06/06 12:45:15;;;;;;;2.87;2.63;;;27.20;47.50;;;;;;5161234;28;20470;-59
2022/06/06 12:48:03;;;;;;;3.50;3.10;;;26.70;48.40;;;;;;5153881;28;20495;-56
2022/06/06 12:50:57;;;;;;;4.03;3.30;;;26.50;49.80;;;;;;5162435;28;20766;-56
2022/06/06 12:53:49;;;;;;;4.87;3.27;;;25.90;51.90;;;;;;5162493;28;20836;-55
2022/06/06 12:56:57;;;;;;;10.63;6.70;;;25.50;54.80;;;;;;5162617;28;20423;-57
2022/06/06 12:59:38;;;;;;;3.53;3.33;;;25.10;59.30;;;;;;5158148;28;20824;-56
2022/06/06 13:02:30;;;;;;;2.80;2.57;;;25.10;62.20;;;;;;5155904;28;20507;-55
2022/06/06 13:05:24;;;;;;;5.07;3.53;;;25.20;60.90;;;;;;5157050;28;20433;-54
2022/06/06 13:07:59;;;;;;;2.60;2.50;;;25.30;61.90;;;;;;5161691;28;20432;-56
2022/06/06 13:10:46;;;;;;;3.40;2.90;;;25.60;60.10;;;;;;5162212;28;20435;-55
2022/06/06 13:13:41;;;;;;;3.90;2.93;;;25.90;58.20;;;;;;5159530;28;20972;-56
2022/06/06 13:16:36;;;;;;;2.50;2.40;;;25.90;58.20;;;;;;5164033;28;20928;-56
2022/06/06 13:19:25;;;;;;;4.20;3.60;;;26.20;56.70;;;;;;5155160;28;20453;-55
2022/06/06 13:22:20;;;;;;;2.50;2.40;;;26.70;57.60;;;;;;5146157;28;20524;-56
2022/06/06 13:25:11;;;;;;;2.60;2.50;;;27.10;55.20;;;;;;5157013;28;20452;-55
2022/06/06 13:27:56;;;;;;;3.00;2.70;;;27.30;54.70;;;;;;5152151;28;20468;-55
2022/06/06 13:30:28;;;;;;;5.63;2.90;;;27.20;53.30;;;;;;5152596;28;20444;-57
2022/06/06 13:33:25;;;;;;;2.77;2.63;;;27.20;52.40;;;;;;5160698;28;20468;-56
2022/06/06 13:36:25;;;;;;;2.13;2.03;;;27.20;53.00;;;;;;5163476;28;20431;-54
2022/06/06 13:39:25;;;;;;;3.33;2.57;;;27.10;52.80;;;;;;5148316;28;20504;-56
2022/06/06 13:42:03;;;;;;;2.73;2.60;;;26.70;50.20;;;;;;5157319;28;20437;-56
2022/06/06 13:45:14;;;;;;;7.23;3.37;;;26.30;51.10;;;;;;5164257;28;20804;-55
2022/06/06 13:48:30;;;;;;;3.93;3.60;;;26.00;51.70;;;;;;5147380;28;20476;-55
2022/06/06 13:51:09;;;;;;;3.03;2.67;;;25.80;53.00;;;;;;5148252;28;20462;-57
2022/06/06 13:53:43;;;;;;;2.83;2.73;;;26.00;52.10;;;;;;5165744;28;20448;-55
2022/06/06 13:56:13;;;;;;;3.00;2.90;;;26.40;51.20;;;;;;5168105;28;20451;-56
2022/06/06 13:58:57;;;;;;;2.30;2.20;;;26.60;51.60;;;;;;5163608;28;20456;-56
2022/06/06 14:01:55;;;;;;;3.47;2.47;;;26.70;50.50;;;;;;5160575;28;20229;-56
2022/06/06 14:04:41;;;;;;;3.17;2.97;;;26.70;50.40;;;;;;5159015;28;20440;-56
2022/06/06 14:07:30;;;;;;;15.90;10.80;;;26.70;50.00;;;;;;5168323;28;20823;-56
2022/06/06 14:10:10;;;;;;;4.33;3.90;;;26.80;49.00;;;;;;5164458;28;20428;-56
2022/06/06 14:13:24;;;;;;;2.83;2.73;;;27.20;48.80;;;;;;5159277;28;20984;-57
2022/06/06 14:15:57;;;;;;;3.37;3.07;;;27.60;48.60;;;;;;5145824;28;20444;-57
2022/06/06 14:18:32;;;;;;;2.90;2.57;;;27.80;47.70;;;;;;5108662;29;20454;-55
2022/06/06 14:21:03;;;;;;;3.57;3.27;;;27.70;47.00;;;;;;5150531;28;20484;-55
2022/06/06 14:23:37;;;;;;;2.57;2.37;;;27.60;48.30;;;;;;5163256;28;20425;-55
2022/06/06 14:26:13;;;;;;;3.43;2.47;;;27.60;48.40;;;;;;5164412;28;20432;-55
2022/06/06 14:28:44;;;;;;;3.03;2.83;;;27.30;47.70;;;;;;5165714;28;20558;-56
2022/06/06 14:31:32;;;;;;;2.80;2.70;;;27.10;49.70;;;;;;5166200;28;20908;-55
2022/06/06 14:34:18;;;;;;;3.17;2.90;;;26.80;49.70;;;;;;5165661;28;20812;-56
2022/06/06 14:37:06;;;;;;;9.03;4.13;;;26.70;49.40;;;;;;5156866;28;20444;-56